Portada
METAR-TAF:

METAR-TAF

Aeroports :

Lannion, França

latitud: 48-45N, longitud: 003-28W, altitud: 89 m

Observació

L'informe es va fer fa 31 minuts, a les 16:30 UTC
Vent 17 kt del Sud
Temperatura 12°C
Humitat 88%
Pressió 1012 hPa
Visibilitat 10 km o més
Cel ennuvolat a una alçada de 1400 ft
Cel cobert a una alçada de 1900 ft

METAR: LFRO 101630Z AUTO 19017KT 9999 BKN014 OVC019 12/10 Q1012

Hora: 18:01 (17:01 UTC)


TAF: manca

Observacions i pronòstics meteorològics de més de 4000 aeroports (METAR i TAF).

Les estacions disponibles són els punts grocs i vermells al mapa.

Posi el ratolí al punt desitjat per veure el nom de l'estació.

Feu clic per veure les observacions i els pronòstics meteorològics.

Per canviar el mapa: feu clic els botons verds amb una creu de color negre per apropar; al botó verd amb un guió per allunyar la imatge; o en les fletxes verdes per a mapes adjacents.


METAR-TAF: